Terminal Aerodrome Forecast
Issued by NWS Raleigh/Durham, NC

Home | Current Version | Previous Version | Text Only | Print | Product List | Glossary On
Versions: 1 2 3 4 5 6 7 8 9 10 11 12 13 14 15 16 17 18 19 20 21 22 23 24 25 26
000
FTUS42 KRAH 191610 AAB
TAFGSO
TAF AMD
KGSO 191610Z 1916/2012 00000KT 2SM -RA BR OVC004
      TEMPO 1916/1919 1SM -DZ BR OVC002
     FM191900 VRB03KT 1SM BR OVC004
     FM200000 00000KT 1/2SM FG OVC002
     FM200900 VRB03KT 1/4SM FG OVC001=

USA.gov is the U.S. government's official web portal to all federal, state and local government web resources and services.